createdAt,value
2022-12-18T00:00:14.519Z,13
2022-12-18T00:01:13.522Z,12.60
2022-12-18T00:03:27.850Z,12.19
2022-12-18T00:04:13.702Z,12.30
2022-12-18T00:05:13.777Z,11.5
2022-12-18T00:06:13.754Z,11.89
2022-12-18T00:07:13.878Z,12.19
2022-12-18T00:08:13.674Z,12.10
2022-12-18T00:09:13.807Z,12
2022-12-18T00:10:15.504Z,11.89
2022-12-18T00:11:13.717Z,13
2022-12-18T00:13:13.642Z,12.80
2022-12-18T00:14:13.322Z,13.10
2022-12-18T00:15:13.836Z,13.19
2022-12-18T00:16:13.467Z,13
2022-12-18T00:17:14.573Z,12.69
2022-12-18T00:18:16.101Z,12.80
2022-12-18T00:20:14.437Z,12.39
2022-12-18T00:21:14.263Z,13.19
2022-12-18T00:22:13.845Z,13.10
2022-12-18T00:23:13.629Z,12.80
2022-12-18T00:24:13.506Z,12.19
2022-12-18T00:25:13.420Z,12.30
2022-12-18T00:27:13.677Z,12.69
2022-12-18T00:28:14.203Z,11.69
2022-12-18T00:29:13.766Z,12.19
2022-12-18T00:30:13.673Z,11.30
2022-12-18T00:31:14.200Z,11.89
2022-12-18T00:32:13.871Z,11.39
2022-12-18T00:33:14.344Z,12.30
2022-12-18T00:34:13.809Z,11.60
2022-12-18T00:35:13.536Z,12
2022-12-18T00:36:14.211Z,12.30
2022-12-18T00:37:19.737Z,11.30
2022-12-18T00:38:13.860Z,11.5
2022-12-18T00:39:13.789Z,11.69
2022-12-18T00:41:13.639Z,11.39
2022-12-18T00:42:13.802Z,12.5
2022-12-18T00:43:13.351Z,12.69
2022-12-18T00:44:14.147Z,12.19
2022-12-18T00:45:14.326Z,11.69
2022-12-18T00:46:14.306Z,11.89
2022-12-18T00:48:13.710Z,11.39
2022-12-18T00:49:13.485Z,12.19
2022-12-18T00:50:13.342Z,12.10
2022-12-18T00:51:13.777Z,11.60
2022-12-18T00:52:13.480Z,11.5
2022-12-18T00:53:14.186Z,12.60
2022-12-18T00:54:13.812Z,12.30
2022-12-18T00:56:13.694Z,11.89
2022-12-18T00:58:13.697Z,12.19
2022-12-18T01:00:14.840Z,11.69
2022-12-18T01:01:15.789Z,11.89
2022-12-18T01:02:14.528Z,12
2022-12-18T01:03:13.577Z,11.80
2022-12-18T01:04:14.298Z,11.89
2022-12-18T01:05:14.230Z,12.10
2022-12-18T01:06:13.852Z,11.60
2022-12-18T01:07:13.300Z,11.30
2022-12-18T01:08:13.748Z,12.10
2022-12-18T01:09:14.166Z,11.69
2022-12-18T01:10:13.561Z,12.60
2022-12-18T01:11:14.112Z,11.39
2022-12-18T01:12:13.522Z,11.69
2022-12-18T01:13:13.694Z,11.60
2022-12-18T01:14:13.104Z,12.19
2022-12-18T01:15:13.695Z,12.10
2022-12-18T01:16:13.969Z,11.30
2022-12-18T01:17:13.604Z,12.19
2022-12-18T01:18:14.026Z,12
2022-12-18T01:19:13.454Z,12.19
2022-12-18T01:20:13.947Z,12
2022-12-18T01:22:13.248Z,11.5
2022-12-18T01:24:14.050Z,11.39
2022-12-18T01:25:13.372Z,12.5
2022-12-18T01:26:13.647Z,11.69
2022-12-18T01:27:13.688Z,12.10
2022-12-18T01:28:13.754Z,11.89
2022-12-18T01:29:13.892Z,11.5
2022-12-18T01:30:14.091Z,12.5
2022-12-18T01:31:13.533Z,11.69
2022-12-18T01:32:13.664Z,12.5
2022-12-18T01:33:13.386Z,11.69
2022-12-18T01:35:13.639Z,11.5
2022-12-18T01:37:13.234Z,11.39
2022-12-18T01:38:13.000Z,11
2022-12-18T01:40:13.899Z,10.39
2022-12-18T01:41:12.932Z,11
2022-12-18T01:42:14.073Z,11.30
2022-12-18T01:43:13.252Z,11
2022-12-18T01:44:13.748Z,10.60
2022-12-18T01:45:13.414Z,11.10
2022-12-18T01:46:13.311Z,11
2022-12-18T01:48:13.856Z,10.80
2022-12-18T01:49:13.766Z,10.10
2022-12-18T01:50:13.162Z,10.30
2022-12-18T01:51:13.519Z,10.89
2022-12-18T01:52:13.697Z,10.39
2022-12-18T01:53:13.977Z,10.60
2022-12-18T01:54:14.076Z,10.5
2022-12-18T01:55:13.402Z,9.899
2022-12-18T01:56:13.238Z,10
2022-12-18T01:57:13.405Z,10.69
2022-12-18T01:59:13.945Z,10
2022-12-18T02:00:14.780Z,10.10
2022-12-18T02:01:14.259Z,10.30
2022-12-18T02:02:14.162Z,10.60
2022-12-18T02:03:13.774Z,10.80
2022-12-18T02:04:13.270Z,10.30
2022-12-18T02:05:13.741Z,10.39
2022-12-18T02:06:13.852Z,10.10
2022-12-18T02:07:13.108Z,11.39
2022-12-18T02:08:13.154Z,10.30
2022-12-18T02:09:13.465Z,10.60
2022-12-18T02:10:13.828Z,11.10
2022-12-18T02:11:13.934Z,11.89
2022-12-18T02:12:18.057Z,10.5
2022-12-18T02:13:13.011Z,10.39
2022-12-18T02:14:13.041Z,10.19
2022-12-18T02:15:13.141Z,10.39
2022-12-18T02:16:13.230Z,10.89
2022-12-18T02:17:13.596Z,10.10
2022-12-18T02:18:13.669Z,10.39
2022-12-18T02:19:13.884Z,9.600
2022-12-18T02:20:13.252Z,10.30
2022-12-18T02:21:13.314Z,10.10
2022-12-18T02:22:13.789Z,9.800
2022-12-18T02:23:13.985Z,9.699
2022-12-18T02:24:13.329Z,10.30
2022-12-18T02:25:14.040Z,10.19
2022-12-18T02:26:13.353Z,10
2022-12-18T02:27:13.623Z,10.10
2022-12-18T02:28:14.133Z,9.800
2022-12-18T02:29:13.393Z,9.600
2022-12-18T02:31:13.418Z,9.399
2022-12-18T02:32:13.568Z,9
2022-12-18T02:33:13.754Z,8.800
2022-12-18T02:34:13.824Z,9.699
2022-12-18T02:36:13.118Z,8.800
2022-12-18T02:37:13.320Z,9.100
2022-12-18T02:38:13.386Z,9.300
2022-12-18T02:39:13.624Z,9
2022-12-18T02:40:13.687Z,9.199
2022-12-18T02:42:13.684Z,9.600
2022-12-18T02:43:14.137Z,9.399
2022-12-18T02:44:13.875Z,9.600
2022-12-18T02:45:13.487Z,9
2022-12-18T02:47:13.534Z,9.5
2022-12-18T02:48:13.699Z,9.199
2022-12-18T02:49:13.724Z,9.100
2022-12-18T02:50:13.956Z,8.899
2022-12-18T02:51:13.896Z,9.399
2022-12-18T02:52:13.375Z,9.100
2022-12-18T02:54:13.964Z,9.399
2022-12-18T02:55:13.243Z,9.300
2022-12-18T02:56:13.440Z,9.600
2022-12-18T02:57:13.533Z,8.699
2022-12-18T02:58:13.744Z,9.100
2022-12-18T02:59:13.105Z,9.699
2022-12-18T03:00:14.123Z,9.300
2022-12-18T03:01:13.903Z,9.5
2022-12-18T03:03:13.291Z,10.10
2022-12-18T03:04:13.816Z,8.800
2022-12-18T03:05:14.119Z,9.300
2022-12-18T03:06:13.207Z,8.800
2022-12-18T03:07:13.295Z,9
2022-12-18T03:08:13.323Z,9.100
2022-12-18T03:09:13.884Z,8.800
2022-12-18T03:11:14.080Z,9.100
2022-12-18T03:12:13.290Z,8.800
2022-12-18T03:15:17.587Z,8.100
2022-12-18T03:16:13.121Z,8.899
2022-12-18T03:17:13.535Z,9.199
2022-12-18T03:20:13.951Z,9.100
2022-12-18T03:21:13.079Z,10.30
2022-12-18T03:22:13.396Z,9.199
2022-12-18T03:24:13.495Z,9.100
2022-12-18T03:25:14.027Z,8.699
2022-12-18T03:26:13.367Z,9.600
2022-12-18T03:27:13.718Z,8.800
2022-12-18T03:28:13.646Z,9.300
2022-12-18T03:29:14.076Z,9
2022-12-18T03:30:13.433Z,8.800
2022-12-18T03:31:13.594Z,9.100
2022-12-18T03:32:13.552Z,9.399
2022-12-18T03:33:13.864Z,8.600
2022-12-18T03:34:14.068Z,9.5
2022-12-18T03:35:13.504Z,9.800
2022-12-18T03:36:13.348Z,9.199
2022-12-18T03:37:13.406Z,9.399
2022-12-18T03:38:13.656Z,9.5
2022-12-18T03:39:13.741Z,10
2022-12-18T03:40:13.866Z,9.699
2022-12-18T03:41:13.245Z,9.5
2022-12-18T03:42:13.333Z,9.600
2022-12-18T03:43:13.623Z,9.5
2022-12-18T03:44:13.755Z,9.300
2022-12-18T03:45:14.422Z,8.899
2022-12-18T03:46:13.991Z,9.699
2022-12-18T03:47:13.597Z,9.199
2022-12-18T03:48:13.727Z,9.399
2022-12-18T03:49:13.917Z,9.199
2022-12-18T03:50:14.023Z,9.300
2022-12-18T03:51:13.023Z,9
2022-12-18T03:52:13.231Z,8.5
2022-12-18T03:53:13.329Z,9.199
2022-12-18T03:54:13.398Z,8.899
2022-12-18T03:55:13.317Z,9.100
2022-12-18T03:56:13.316Z,9.199
2022-12-18T03:57:13.352Z,9
2022-12-18T03:58:13.402Z,9.100
2022-12-18T03:59:13.494Z,8.899
2022-12-18T04:01:13.612Z,8.300
2022-12-18T04:02:13.865Z,9.5
2022-12-18T04:03:13.380Z,9.100
2022-12-18T04:04:13.824Z,9.399
2022-12-18T04:05:14.191Z,9.100
2022-12-18T04:06:13.224Z,8.899
2022-12-18T04:07:13.555Z,9.100
2022-12-18T04:08:13.496Z,8.300
2022-12-18T04:09:13.560Z,9.399
2022-12-18T04:10:13.899Z,8.800
2022-12-18T04:11:13.720Z,9.300
2022-12-18T04:12:13.771Z,9.399
2022-12-18T04:13:13.287Z,9.300
2022-12-18T04:14:17.575Z,9.5
2022-12-18T04:15:14.141Z,8.800
2022-12-18T04:16:13.365Z,10
2022-12-18T04:17:13.441Z,9
2022-12-18T04:18:13.465Z,9.399
2022-12-18T04:19:13.564Z,9.800
2022-12-18T04:20:13.813Z,9.699
2022-12-18T04:21:14.365Z,9.600
2022-12-18T04:22:13.483Z,9.699
2022-12-18T04:23:13.483Z,9.5
2022-12-18T04:24:13.847Z,10.5
2022-12-18T04:25:14.181Z,10.19
2022-12-18T04:26:13.271Z,10.10
2022-12-18T04:27:13.584Z,10.60
2022-12-18T04:28:13.668Z,10.19
2022-12-18T04:30:13.554Z,10.89
2022-12-18T04:31:14.047Z,10.30
2022-12-18T04:32:13.286Z,11
2022-12-18T04:33:13.696Z,9.899
2022-12-18T04:34:13.663Z,10.5
2022-12-18T04:35:14.079Z,10.19
2022-12-18T04:36:13.153Z,10.80
2022-12-18T04:37:13.348Z,10.60
2022-12-18T04:38:13.566Z,10.30
2022-12-18T04:39:13.967Z,10.89
2022-12-18T04:40:13.058Z,10.30
2022-12-18T04:41:13.247Z,10.19
2022-12-18T04:42:13.102Z,10.69
2022-12-18T04:44:13.760Z,10.80
2022-12-18T04:45:22.265Z,11.39
2022-12-18T04:46:13.265Z,10.39
2022-12-18T04:47:22.001Z,10
2022-12-18T04:48:13.743Z,10.69
2022-12-18T04:49:13.801Z,10.39
2022-12-18T04:50:12.963Z,10.60
2022-12-18T04:51:13.093Z,10.80
2022-12-18T04:52:13.601Z,10.69
2022-12-18T04:53:13.754Z,10.80
2022-12-18T04:54:13.469Z,11.5
2022-12-18T04:55:13.747Z,11.60
2022-12-18T04:56:13.026Z,12.30
2022-12-18T04:58:12.661Z,12.5
2022-12-18T05:00:14.511Z,11.80
2022-12-18T05:01:14.128Z,12.10
2022-12-18T05:02:13.844Z,11.89
2022-12-18T05:03:13.750Z,13.10
2022-12-18T05:04:13.916Z,13.39
2022-12-18T05:05:13.422Z,13.19
2022-12-18T05:06:13.634Z,12.69
2022-12-18T05:07:12.992Z,12.80
2022-12-18T05:08:13.637Z,12.5
2022-12-18T05:10:13.311Z,12.39
2022-12-18T05:11:13.436Z,12.60
2022-12-18T05:13:13.738Z,12.69
2022-12-18T05:14:13.758Z,12.80
2022-12-18T05:15:14.120Z,12.69
2022-12-18T05:16:13.581Z,12.89
2022-12-18T05:17:14.146Z,13
2022-12-18T05:18:13.251Z,12.80
2022-12-18T05:19:13.462Z,12.39
2022-12-18T05:20:14.033Z,12.80
2022-12-18T05:21:13.583Z,13.39
2022-12-18T05:22:13.942Z,13
2022-12-18T05:23:13.372Z,12.69
2022-12-18T05:24:13.753Z,12.30
2022-12-18T05:25:14.185Z,13.19
2022-12-18T05:26:13.415Z,12
2022-12-18T05:27:13.406Z,12.30
2022-12-18T05:28:13.550Z,13
2022-12-18T05:29:13.624Z,12.10
2022-12-18T05:30:13.875Z,12.5
2022-12-18T05:31:13.327Z,12.30
2022-12-18T05:32:13.635Z,12.69
2022-12-18T05:33:13.999Z,12
2022-12-18T05:34:13.318Z,12.60
2022-12-18T05:35:14.094Z,12.69
2022-12-18T05:38:13.110Z,13.10
2022-12-18T05:39:13.205Z,12.39
2022-12-18T05:40:13.497Z,12.60
2022-12-18T05:42:13.158Z,12.69
2022-12-18T05:43:17.944Z,13.60
2022-12-18T05:44:14.496Z,13.30
2022-12-18T05:45:14.137Z,12.80
2022-12-18T05:46:11.934Z,13.10
2022-12-18T05:47:13.908Z,12.60
2022-12-18T05:48:13.016Z,13.89
2022-12-18T05:49:13.224Z,13.69
2022-12-18T05:50:13.598Z,13
2022-12-18T05:51:14.082Z,12
2022-12-18T05:52:13.625Z,12.39
2022-12-18T05:53:14.098Z,12.30
2022-12-18T05:54:13.331Z,12.60
2022-12-18T05:55:14.112Z,11.30
2022-12-18T05:56:13.456Z,11.69
2022-12-18T05:58:13.853Z,11.60
2022-12-18T05:59:13.131Z,11.5
2022-12-18T06:00:14.321Z,11.39
2022-12-18T06:01:14.336Z,11.30
2022-12-18T06:02:14.341Z,10.60
2022-12-18T06:03:13.847Z,10.39
2022-12-18T06:04:13.768Z,11.19
2022-12-18T06:05:13.338Z,10.80
2022-12-18T06:07:13.947Z,11
2022-12-18T06:08:13.041Z,10.19
2022-12-18T06:09:13.659Z,9.600
2022-12-18T06:10:14.252Z,11.10
2022-12-18T06:11:13.714Z,10.30
2022-12-18T06:13:12.937Z,10
2022-12-18T06:14:14.137Z,10.30
2022-12-18T06:15:13.721Z,9.899
2022-12-18T06:16:13.801Z,10.5
2022-12-18T06:17:13.483Z,10.19
2022-12-18T06:18:13.195Z,10.10
2022-12-18T06:19:13.528Z,10.39
2022-12-18T06:21:13.963Z,10.80
2022-12-18T06:22:13.210Z,11.10
2022-12-18T06:23:13.302Z,11.39
2022-12-18T06:24:13.940Z,11
2022-12-18T06:25:13.765Z,11.69
2022-12-18T06:26:14.042Z,11.5
2022-12-18T06:28:13.417Z,11.39
2022-12-18T06:29:13.575Z,11.89
2022-12-18T06:30:14.466Z,11.10
2022-12-18T06:31:13.348Z,11.30
2022-12-18T06:32:13.803Z,10.89
2022-12-18T06:33:14.132Z,10.80
2022-12-18T06:34:13.427Z,12
2022-12-18T06:35:14.045Z,11.30
2022-12-18T06:36:13.756Z,11.10
2022-12-18T06:37:13.948Z,10.69
2022-12-18T06:38:13.015Z,11.10
2022-12-18T06:39:14.135Z,10.89
2022-12-18T06:40:13.682Z,11.39
2022-12-18T06:41:13.112Z,11.30
2022-12-18T06:42:13.213Z,10.60
2022-12-18T06:43:13.517Z,10.69
2022-12-18T06:44:13.882Z,10.60
2022-12-18T06:45:13.299Z,11.10
2022-12-18T06:47:13.991Z,11
2022-12-18T06:48:13.392Z,9.800
2022-12-18T06:49:13.646Z,10.60
2022-12-18T06:50:13.627Z,10.19
2022-12-18T06:51:13.955Z,10.5
2022-12-18T06:52:13.209Z,10.69
2022-12-18T06:53:13.493Z,10.30
2022-12-18T06:54:13.891Z,11.5
2022-12-18T06:55:13.749Z,10.60
2022-12-18T06:56:13.810Z,11.19
2022-12-18T06:57:13.784Z,11
2022-12-18T06:58:14.127Z,12
2022-12-18T06:59:13.401Z,11
2022-12-18T07:00:14.660Z,10.80
2022-12-18T07:01:13.958Z,11.5
2022-12-18T07:02:13.558Z,11.10
2022-12-18T07:03:13.888Z,11.80
2022-12-18T07:04:13.682Z,11
2022-12-18T07:05:13.470Z,11.80
2022-12-18T07:06:13.812Z,11.69
2022-12-18T07:07:13.155Z,11.10
2022-12-18T07:08:13.098Z,11.89
2022-12-18T07:09:13.352Z,10.89
2022-12-18T07:10:14.073Z,12.39
2022-12-18T07:11:13.195Z,13.19
2022-12-18T07:12:13.543Z,11.30
2022-12-18T07:13:13.935Z,12.10
2022-12-18T07:14:13.407Z,11.80
2022-12-18T07:15:13.971Z,12.80
2022-12-18T07:16:20.916Z,12
2022-12-18T07:17:14.069Z,12.19
2022-12-18T07:18:13.444Z,11.60
2022-12-18T07:19:13.970Z,12.10
2022-12-18T07:20:13.445Z,11.5
2022-12-18T07:21:13.925Z,11.69
2022-12-18T07:22:13.427Z,12.30
2022-12-18T07:23:13.818Z,12
2022-12-18T07:24:13.322Z,12.19
2022-12-18T07:25:14.089Z,13.10
2022-12-18T07:26:27.345Z,12.80
2022-12-18T07:27:13.452Z,12.5
2022-12-18T07:28:17.331Z,12.80
2022-12-18T07:29:13.405Z,13.60
2022-12-18T07:30:14.063Z,13.19
2022-12-18T07:31:13.623Z,13.10
2022-12-18T07:32:13.618Z,13.30
2022-12-18T07:33:13.505Z,13.60
2022-12-18T07:34:14.094Z,14
2022-12-18T07:35:13.684Z,13.5
2022-12-18T07:36:13.698Z,13.39
2022-12-18T07:37:14.226Z,13.60
2022-12-18T07:38:13.928Z,13.80
2022-12-18T07:39:13.562Z,14.39
2022-12-18T07:40:14.165Z,14.89
2022-12-18T07:41:13.614Z,14.60
2022-12-18T07:42:13.877Z,15.69
2022-12-18T07:43:13.380Z,14.39
2022-12-18T07:44:14.114Z,15.39
2022-12-18T07:45:13.591Z,15.19
2022-12-18T07:46:14.003Z,15.80
2022-12-18T07:47:13.664Z,15.60
2022-12-18T07:48:13.993Z,15.10
2022-12-18T07:49:13.431Z,14.60
2022-12-18T07:50:14.631Z,15.80
2022-12-18T07:51:14.114Z,14.39
2022-12-18T07:52:13.611Z,14.19
2022-12-18T07:53:13.756Z,13.89
2022-12-18T07:54:13.119Z,15
2022-12-18T07:55:13.659Z,14.80
2022-12-18T07:56:28.224Z,15.19
2022-12-18T07:57:27.325Z,14.10
2022-12-18T07:58:13.601Z,14.60
2022-12-18T07:59:13.805Z,14.89
2022-12-18T08:00:15.129Z,13.80
2022-12-18T08:01:14.206Z,14.89
2022-12-18T08:02:14.245Z,13.60
2022-12-18T08:03:14.344Z,14.10
2022-12-18T08:04:14.422Z,14
2022-12-18T08:05:14.487Z,15.10
2022-12-18T08:06:13.757Z,14.19
2022-12-18T08:07:13.744Z,14.5
2022-12-18T08:08:14.153Z,14.80
2022-12-18T08:09:13.833Z,15.10
2022-12-18T08:10:13.180Z,12.89
2022-12-18T08:11:13.603Z,14.10
2022-12-18T08:12:13.925Z,14.5
2022-12-18T08:14:14.264Z,14.30
2022-12-18T08:15:13.865Z,14
2022-12-18T08:16:13.342Z,14.89
2022-12-18T08:17:14.111Z,13.5
2022-12-18T08:18:14.534Z,14.30
2022-12-18T08:19:14.212Z,14.69
2022-12-18T08:20:13.966Z,14.60
2022-12-18T08:21:13.816Z,15.19
2022-12-18T08:22:13.510Z,15.60
2022-12-18T08:23:14.156Z,16.10
2022-12-18T08:24:13.482Z,16
2022-12-18T08:25:14.355Z,16.39
2022-12-18T08:26:13.591Z,14.89
2022-12-18T08:27:28.887Z,15.19
2022-12-18T08:28:14.006Z,15.60
2022-12-18T08:29:17.324Z,15.69
2022-12-18T08:30:13.806Z,16.70
2022-12-18T08:31:13.627Z,15.60
2022-12-18T08:32:13.956Z,16.29
2022-12-18T08:33:13.581Z,15.89
2022-12-18T08:34:14.202Z,16.89
2022-12-18T08:35:17.569Z,16.60
2022-12-18T08:36:14.256Z,15.5
2022-12-18T08:37:13.821Z,16.89
2022-12-18T08:38:13.397Z,17
2022-12-18T08:40:13.951Z,17.10
2022-12-18T08:41:13.691Z,16.79
2022-12-18T08:42:14.170Z,16.5
2022-12-18T08:43:13.357Z,16.39
2022-12-18T08:44:14.124Z,16.79
2022-12-18T08:46:13.730Z,17.20
2022-12-18T08:47:13.447Z,15.89
2022-12-18T08:48:17.824Z,16.89
2022-12-18T08:49:13.892Z,16.60
2022-12-18T08:50:14.308Z,16.29
2022-12-18T08:51:14.008Z,16.70
2022-12-18T08:52:14.210Z,16.10
2022-12-18T08:53:13.768Z,15.80
2022-12-18T08:54:13.456Z,16.89
2022-12-18T08:55:14.212Z,16.39
2022-12-18T08:56:14.220Z,17.60
2022-12-18T08:57:13.766Z,17.79
2022-12-18T08:58:13.464Z,17.5
2022-12-18T08:59:19.381Z,17.79
2022-12-18T09:00:14.680Z,17.60
2022-12-18T09:01:13.741Z,16.70
2022-12-18T09:02:13.263Z,17.10
2022-12-18T09:03:14.497Z,17.39
2022-12-18T09:04:14.302Z,16.20
2022-12-18T09:05:13.842Z,16.29
2022-12-18T09:06:13.916Z,16.39
2022-12-18T09:07:13.651Z,16.10
2022-12-18T09:08:13.220Z,15.5
2022-12-18T09:09:13.921Z,15.39
2022-12-18T09:10:13.868Z,16.79
2022-12-18T09:11:13.761Z,15.69
2022-12-18T09:12:14.281Z,16
2022-12-18T09:13:13.854Z,15.30
2022-12-18T09:14:13.364Z,15.5
2022-12-18T09:15:14.322Z,15.89
2022-12-18T09:16:13.715Z,16.39
2022-12-18T09:17:14.082Z,15.69
2022-12-18T09:18:13.790Z,16.10
2022-12-18T09:19:14.411Z,16
2022-12-18T09:21:14.202Z,16.70
2022-12-18T09:22:13.718Z,16.89
2022-12-18T09:23:18.511Z,16.20
2022-12-18T09:24:14.124Z,16.79
2022-12-18T09:25:13.716Z,16.29
2022-12-18T09:26:13.292Z,16.70
2022-12-18T09:27:13.908Z,16.29
2022-12-18T09:28:13.912Z,16.39
2022-12-18T09:29:13.428Z,16.10
2022-12-18T09:30:14.665Z,16.79
2022-12-18T09:31:14.373Z,16.39
2022-12-18T09:32:18.970Z,16.79
2022-12-18T09:33:13.775Z,16.29
2022-12-18T09:34:14.312Z,17
2022-12-18T09:36:13.483Z,15.89
2022-12-18T09:37:14.151Z,16.39
2022-12-18T09:38:13.667Z,16.29
2022-12-18T09:39:13.585Z,16.10
2022-12-18T09:40:13.968Z,17.20
2022-12-18T09:41:13.505Z,16.29
2022-12-18T09:42:14.138Z,17.39
2022-12-18T09:43:28.121Z,16.89
2022-12-18T09:44:13.752Z,18.29
2022-12-18T09:45:14.180Z,16.89
2022-12-18T09:46:13.899Z,16.79
2022-12-18T09:47:13.655Z,17
2022-12-18T09:48:13.532Z,16.79
2022-12-18T09:49:14.351Z,16.5
2022-12-18T09:50:17.283Z,17.29
2022-12-18T09:51:14.157Z,17.10
2022-12-18T09:52:13.751Z,17.20
2022-12-18T09:53:13.415Z,17.39
2022-12-18T09:54:13.835Z,16.29
2022-12-18T09:55:13.725Z,16.5
2022-12-18T09:56:13.584Z,16.60
2022-12-18T09:58:14.114Z,17.10
2022-12-18T09:59:13.733Z,16.39
2022-12-18T10:01:14.876Z,16.5
2022-12-18T10:02:14.570Z,15.30
2022-12-18T10:03:13.417Z,15.89
2022-12-18T10:04:14.778Z,16.70
2022-12-18T10:06:14.241Z,17.39
2022-12-18T10:07:13.832Z,16.10
2022-12-18T10:08:13.085Z,15.89
2022-12-18T10:09:13.393Z,17
2022-12-18T10:10:13.994Z,16.5
2022-12-18T10:11:13.525Z,16.60
2022-12-18T10:12:14.286Z,16.29
2022-12-18T10:13:14.050Z,17.39
2022-12-18T10:14:13.551Z,16.70
2022-12-18T10:15:14.612Z,16.5
2022-12-18T10:16:14.422Z,17
2022-12-18T10:17:14.416Z,17.10
2022-12-18T10:18:17.410Z,16.10
2022-12-18T10:19:14.606Z,16.79
2022-12-18T10:20:13.786Z,16.60
2022-12-18T10:21:13.709Z,16.79
2022-12-18T10:22:13.161Z,16.20
2022-12-18T10:23:14.086Z,17.20
2022-12-18T10:24:13.989Z,15.89
2022-12-18T10:25:14.407Z,16.70
2022-12-18T10:26:13.801Z,16.29
2022-12-18T10:27:14.444Z,16.5
2022-12-18T10:28:14.139Z,15.30
2022-12-18T10:29:13.739Z,16.60
2022-12-18T10:30:14.692Z,16.20
2022-12-18T10:31:14.334Z,16.10
2022-12-18T10:32:14.225Z,15.5
2022-12-18T10:33:13.601Z,15.80
2022-12-18T10:34:13.241Z,16.10
2022-12-18T10:35:14.154Z,15.89
2022-12-18T10:37:14.150Z,15.19
2022-12-18T10:38:13.652Z,15.30
2022-12-18T10:39:13.694Z,15.39
2022-12-18T10:40:19.851Z,15
2022-12-18T10:41:13.710Z,14.60
2022-12-18T10:42:13.759Z,16.10
2022-12-18T10:43:14.275Z,15.10
2022-12-18T10:44:14.176Z,15.89
2022-12-18T10:45:14.049Z,15.19
2022-12-18T10:46:13.761Z,14.80
2022-12-18T10:47:13.811Z,15.10
2022-12-18T10:48:14.122Z,15.60
2022-12-18T10:49:14.054Z,15
2022-12-18T10:50:13.770Z,16
2022-12-18T10:51:14.075Z,15.39
2022-12-18T10:52:13.275Z,14.69
2022-12-18T10:53:14.055Z,14.30
2022-12-18T10:54:13.789Z,15
2022-12-18T10:55:13.753Z,15.80
2022-12-18T10:56:13.903Z,15.19
2022-12-18T10:57:13.560Z,16
2022-12-18T10:58:14.401Z,15.60
2022-12-18T10:59:14.454Z,15.19
2022-12-18T11:00:14.913Z,14.80
2022-12-18T11:02:13.968Z,15.89
2022-12-18T11:03:14.277Z,15.30
2022-12-18T11:04:14.099Z,14.80
2022-12-18T11:05:13.883Z,14.89
2022-12-18T11:07:14.145Z,14.30
2022-12-18T11:08:13.782Z,14.39
2022-12-18T11:09:15.594Z,15.5
2022-12-18T11:10:14.083Z,14.69
2022-12-18T11:11:13.565Z,14.19
2022-12-18T11:12:14.363Z,14.69
2022-12-18T11:13:13.872Z,14.60
2022-12-18T11:15:13.958Z,13.69
2022-12-18T11:16:13.511Z,14.5
2022-12-18T11:18:13.795Z,14.39
2022-12-18T11:19:13.475Z,15.39
2022-12-18T11:20:14.091Z,14.19
2022-12-18T11:21:13.917Z,15.39
2022-12-18T11:22:13.497Z,14.39
2022-12-18T11:23:13.858Z,14.19
2022-12-18T11:24:13.764Z,14.60
2022-12-18T11:25:34.597Z,14.39
2022-12-18T11:26:13.983Z,15.5
2022-12-18T11:27:13.975Z,13.80
2022-12-18T11:28:13.799Z,14.30
2022-12-18T11:29:14.133Z,14.39
2022-12-18T11:30:13.836Z,14
2022-12-18T11:31:13.485Z,14.5
2022-12-18T11:32:14.064Z,14.80
2022-12-18T11:33:13.487Z,14.89
2022-12-18T11:34:29.246Z,15.19
2022-12-18T11:35:13.659Z,14.10
2022-12-18T11:36:13.134Z,14.5
2022-12-18T11:37:13.787Z,14
2022-12-18T11:38:13.669Z,13.19
2022-12-18T11:39:14.431Z,13.89
2022-12-18T11:40:13.886Z,14.69
2022-12-18T11:41:13.295Z,14.19
2022-12-18T11:42:13.761Z,13.80
2022-12-18T11:43:14.185Z,14.30
2022-12-18T11:44:14.051Z,13.80
2022-12-18T11:45:13.973Z,13.69
2022-12-18T11:46:19.144Z,14.19
2022-12-18T11:47:13.599Z,14.10
2022-12-18T11:48:18.985Z,13.80
2022-12-18T11:49:13.879Z,14.30
2022-12-18T11:50:13.503Z,13.89
2022-12-18T11:51:14.042Z,14
2022-12-18T11:52:18.464Z,14.69
2022-12-18T11:53:14.047Z,14.10
2022-12-18T11:54:13.532Z,14.5
2022-12-18T11:55:14.224Z,13.80
2022-12-18T11:56:13.875Z,14.80
2022-12-18T11:57:14.182Z,13.80
2022-12-18T11:58:14.091Z,14.30
2022-12-18T11:59:13.141Z,14.60
2022-12-18T12:00:19.373Z,14.80
2022-12-18T12:01:13.649Z,14.60
2022-12-18T12:02:13.579Z,15.19
2022-12-18T12:03:13.557Z,15
2022-12-18T12:04:13.525Z,15.19
2022-12-18T12:05:14.283Z,15.30
2022-12-18T12:06:13.614Z,14.60
2022-12-18T12:07:14.618Z,14.19
2022-12-18T12:08:12.751Z,16.20
2022-12-18T12:09:14.290Z,15.19
2022-12-18T12:10:13.857Z,15.5
2022-12-18T12:11:13.106Z,14.5
2022-12-18T12:12:13.553Z,15.30
2022-12-18T12:13:13.711Z,15.39
2022-12-18T12:14:13.913Z,15.5
2022-12-18T12:15:13.444Z,15.69
2022-12-18T12:16:13.870Z,16.39
2022-12-18T12:17:13.606Z,16.29
2022-12-18T12:18:13.971Z,15.69
2022-12-18T12:19:13.412Z,15.30
2022-12-18T12:20:14.187Z,15.60
2022-12-18T12:21:14.721Z,15.5
2022-12-18T12:22:14.116Z,16.10
2022-12-18T12:23:13.675Z,15.5
2022-12-18T12:24:14.436Z,15.10
2022-12-18T12:25:14.171Z,15.69
2022-12-18T12:26:32.607Z,15.39
2022-12-18T12:28:13.500Z,15.5
2022-12-18T12:29:19.419Z,15.69
2022-12-18T12:30:32.416Z,15.80
2022-12-18T12:31:13.800Z,15.60
2022-12-18T12:32:13.397Z,15.69
2022-12-18T12:33:14.265Z,16.20
2022-12-18T12:35:14.574Z,15.30
2022-12-18T12:36:13.802Z,16.29
2022-12-18T12:37:13.314Z,15.80
2022-12-18T12:38:13.834Z,18
2022-12-18T12:39:13.551Z,15.89
2022-12-18T12:40:48.452Z,16.29
2022-12-18T12:41:13.527Z,16.10
2022-12-18T12:42:14.241Z,16.20
2022-12-18T12:43:13.732Z,16.5
2022-12-18T12:44:13.570Z,15.80
2022-12-18T12:45:14.422Z,15.5
2022-12-18T12:46:14.347Z,16.29
2022-12-18T12:47:13.262Z,16
2022-12-18T12:48:14.289Z,16.10
2022-12-18T12:49:13.536Z,16.79
2022-12-18T12:50:14.294Z,16.70
2022-12-18T12:51:14.201Z,16.10
2022-12-18T12:52:13.726Z,16.20
2022-12-18T12:53:13.114Z,16.89
2022-12-18T12:54:14.106Z,17
2022-12-18T12:55:15.007Z,17.29
2022-12-18T12:56:13.596Z,16.70
2022-12-18T12:57:13.229Z,17
2022-12-18T12:58:14.269Z,17.5
2022-12-18T12:59:14.234Z,15.89
2022-12-18T13:00:14.776Z,16.29
2022-12-18T13:01:17.278Z,16.70
2022-12-18T13:02:14.103Z,16.29
2022-12-18T13:03:14.141Z,16.10
2022-12-18T13:04:14.018Z,15.5
2022-12-18T13:05:13.862Z,16.89
2022-12-18T13:06:13.252Z,16.79
2022-12-18T13:07:13.191Z,16.89
2022-12-18T13:08:14.052Z,16.5
2022-12-18T13:09:13.811Z,17.10
2022-12-18T13:10:13.541Z,17.20
2022-12-18T13:11:14.179Z,16
2022-12-18T13:12:13.974Z,16.60
2022-12-18T13:13:16.572Z,16.5
2022-12-18T13:14:14.264Z,16.39
2022-12-18T13:15:14.514Z,16.70
2022-12-18T13:16:13.356Z,16.5
2022-12-18T13:17:13.426Z,17.20
2022-12-18T13:18:13.459Z,17.39
2022-12-18T13:19:13.880Z,17
2022-12-18T13:20:14.037Z,16.5
2022-12-18T13:21:13.951Z,17.29
2022-12-18T13:22:13.595Z,16.89
2022-12-18T13:23:14.304Z,17.29
2022-12-18T13:24:14.483Z,17.39
2022-12-18T13:25:14.364Z,18.10
2022-12-18T13:26:14.092Z,18.79
2022-12-18T13:27:14.287Z,18.39
2022-12-18T13:28:14.437Z,18.89
2022-12-18T13:29:14.181Z,18.29
2022-12-18T13:30:14.435Z,18.60
2022-12-18T13:31:13.856Z,17.89
2022-12-18T13:32:18.362Z,18.70
2022-12-18T13:33:13.642Z,18.29
2022-12-18T13:34:26.179Z,17.70
2022-12-18T13:35:14.528Z,18.60
2022-12-18T13:36:14.211Z,18.10
2022-12-18T13:38:13.681Z,18.39
2022-12-18T13:39:14.061Z,19.10
2022-12-18T13:41:13.582Z,19.89
2022-12-18T13:42:13.630Z,20.10
2022-12-18T13:43:14.321Z,20
2022-12-18T13:44:14.381Z,20.20
2022-12-18T13:45:13.604Z,18.29
2022-12-18T13:46:14.355Z,18.5
2022-12-18T13:49:13.954Z,18
2022-12-18T13:50:13.537Z,18.5
2022-12-18T13:51:13.897Z,18.10
2022-12-18T13:52:13.204Z,19.70
2022-12-18T13:53:13.982Z,17.70
2022-12-18T13:54:13.947Z,18.29
2022-12-18T13:55:14.016Z,19.10
2022-12-18T13:56:14.029Z,19.39
2022-12-18T13:57:15.368Z,19.5
2022-12-18T13:58:13.842Z,18.70
2022-12-18T13:59:13.916Z,19.10
2022-12-18T14:00:14.472Z,19.89
2022-12-18T14:01:14.510Z,19.20
2022-12-18T14:02:14.446Z,19.29
2022-12-18T14:03:16.440Z,19.60
2022-12-18T14:04:13.979Z,20
2022-12-18T14:05:13.996Z,19.79